createdAt,value
2018-10-09T00:01:37.373Z,33.30
2018-10-09T00:04:09.460Z,31.82
2018-10-09T00:06:41.528Z,31.03
2018-10-09T00:09:13.575Z,32.90
2018-10-09T00:11:45.639Z,30.77
2018-10-09T00:14:17.740Z,31.43
2018-10-09T00:16:49.823Z,31.55
2018-10-09T00:19:21.919Z,30.80
2018-10-09T00:21:55.035Z,29.80
2018-10-09T00:24:27.099Z,30.90
2018-10-09T00:27:00.227Z,32.00
2018-10-09T00:29:32.289Z,31.27
2018-10-09T00:32:04.359Z,31.20
2018-10-09T00:34:36.372Z,34.63
2018-10-09T00:37:08.451Z,33.70
2018-10-09T00:39:40.554Z,34.40
2018-10-09T00:42:12.607Z,33.20
2018-10-09T00:44:44.691Z,34.10
2018-10-09T00:47:16.785Z,32.63
2018-10-09T00:49:48.839Z,32.55
2018-10-09T00:52:20.942Z,31.95
2018-10-09T00:54:53.065Z,31.50
2018-10-09T00:57:25.123Z,31.00
2018-10-09T00:59:57.211Z,31.20
2018-10-09T01:02:29.278Z,31.07
2018-10-09T01:05:01.343Z,31.05
2018-10-09T01:07:33.379Z,32.10
2018-10-09T01:10:05.686Z,31.07
2018-10-09T01:12:37.746Z,30.60
2018-10-09T01:15:09.820Z,33.63
2018-10-09T01:17:41.852Z,32.03
2018-10-09T01:20:16.727Z,31.87
2018-10-09T01:22:48.789Z,31.80
2018-10-09T01:25:20.915Z,33.63
2018-10-09T01:27:53.021Z,33.18
2018-10-09T01:30:25.095Z,33.10
2018-10-09T01:32:58.470Z,32.38
2018-10-09T01:35:30.530Z,31.33
2018-10-09T01:38:02.595Z,30.30
2018-10-09T01:40:34.657Z,30.62
2018-10-09T01:43:06.756Z,30.92
2018-10-09T01:45:38.851Z,31.57
2018-10-09T01:48:10.920Z,30.43
2018-10-09T01:50:43.030Z,30.57
2018-10-09T01:53:15.102Z,29.82
2018-10-09T01:55:47.242Z,31.85
2018-10-09T01:58:19.292Z,31.48
2018-10-09T02:00:51.367Z,29.90
2018-10-09T02:03:23.521Z,29.20
2018-10-09T02:05:55.598Z,30.43
2018-10-09T02:08:27.668Z,33.25
2018-10-09T02:10:59.764Z,31.82
2018-10-09T02:13:31.818Z,31.70
2018-10-09T02:16:03.987Z,31.10
2018-10-09T02:18:36.064Z,31.40
2018-10-09T02:21:08.177Z,30.50
2018-10-09T02:23:40.243Z,30.52
2018-10-09T02:26:12.331Z,30.40
2018-10-09T02:28:44.507Z,30.23
2018-10-09T02:31:16.582Z,33.02
2018-10-09T02:33:48.647Z,31.23
2018-10-09T02:36:21.841Z,28.95
2018-10-09T02:38:53.919Z,28.23
2018-10-09T02:41:26.073Z,27.48
2018-10-09T02:43:58.123Z,28.42
2018-10-09T02:46:30.163Z,29.02
2018-10-09T02:49:02.267Z,28.02
2018-10-09T02:51:34.638Z,25.93
2018-10-09T02:54:06.892Z,31.20
2018-10-09T02:56:39.013Z,30.93
2018-10-09T02:59:11.103Z,29.37
2018-10-09T03:01:43.189Z,30.00
2018-10-09T03:04:15.280Z,31.55
2018-10-09T03:06:47.365Z,29.12
2018-10-09T03:09:19.458Z,32.67
2018-10-09T03:11:51.517Z,35.65
2018-10-09T03:14:23.606Z,33.23
2018-10-09T03:16:55.696Z,34.05
2018-10-09T03:19:27.792Z,34.33
2018-10-09T03:21:59.851Z,32.85
2018-10-09T03:24:31.902Z,33.42
2018-10-09T03:27:03.988Z,31.97
2018-10-09T03:29:36.044Z,33.45
2018-10-09T03:32:08.121Z,32.67
2018-10-09T03:34:40.219Z,31.97
2018-10-09T03:37:12.313Z,33.73
2018-10-09T03:39:44.359Z,32.88
2018-10-09T03:42:16.443Z,31.02
2018-10-09T03:44:48.491Z,33.23
2018-10-09T03:47:20.584Z,33.40
2018-10-09T03:49:52.631Z,31.00
2018-10-09T03:52:24.671Z,35.40
2018-10-09T03:54:56.701Z,31.05
2018-10-09T03:57:28.879Z,29.55
2018-10-09T04:00:01.014Z,29.10
2018-10-09T04:02:33.106Z,29.92
2018-10-09T04:05:05.203Z,32.20
2018-10-09T04:07:37.287Z,29.92
2018-10-09T04:10:09.377Z,29.20
2018-10-09T04:12:41.492Z,31.90
2018-10-09T04:15:13.627Z,28.75
2018-10-09T04:17:45.712Z,30.70
2018-10-09T04:20:17.774Z,31.27
2018-10-09T04:22:49.886Z,32.98
2018-10-09T04:25:21.987Z,30.03
2018-10-09T04:27:54.052Z,31.42
2018-10-09T04:30:26.121Z,31.73
2018-10-09T04:32:59.272Z,29.85
2018-10-09T04:35:31.367Z,30.00
2018-10-09T04:38:03.409Z,29.95
2018-10-09T04:40:35.476Z,30.10
2018-10-09T04:43:07.584Z,27.82
2018-10-09T04:45:39.682Z,29.60
2018-10-09T04:48:11.706Z,27.50
2018-10-09T04:50:43.779Z,28.02
2018-10-09T04:53:15.875Z,29.27
2018-10-09T04:55:47.944Z,29.75
2018-10-09T04:58:20.011Z,30.60
2018-10-09T05:00:52.266Z,30.57
2018-10-09T05:03:24.264Z,30.12
2018-10-09T05:05:56.319Z,29.57
2018-10-09T05:08:28.466Z,27.95
2018-10-09T05:11:00.583Z,30.95
2018-10-09T05:13:32.752Z,29.45
2018-10-09T05:16:05.044Z,28.20
2018-10-09T05:18:37.147Z,29.82
2018-10-09T05:21:09.234Z,27.13
2018-10-09T05:23:41.324Z,28.95
2018-10-09T05:26:13.391Z,29.52
2018-10-09T05:28:45.427Z,30.88
2018-10-09T05:31:18.632Z,28.57
2018-10-09T05:33:50.715Z,25.75
2018-10-09T05:36:22.782Z,29.30
2018-10-09T05:38:54.893Z,28.83
2018-10-09T05:41:26.965Z,30.37
2018-10-09T05:43:59.124Z,28.80
2018-10-09T05:46:31.167Z,27.22
2018-10-09T05:49:03.259Z,29.25
2018-10-09T05:51:35.386Z,29.07
2018-10-09T05:54:07.495Z,28.75
2018-10-09T05:56:39.575Z,28.00
2018-10-09T05:59:11.676Z,26.17
2018-10-09T06:01:43.759Z,27.35
2018-10-09T06:04:15.900Z,28.62
2018-10-09T06:06:47.987Z,26.68
2018-10-09T06:09:20.109Z,28.80
2018-10-09T06:11:52.223Z,25.30
2018-10-09T06:14:24.412Z,27.75
2018-10-09T06:16:56.548Z,25.23
2018-10-09T06:19:28.655Z,28.10
2018-10-09T06:22:00.787Z,25.70
2018-10-09T06:24:32.897Z,24.77
2018-10-09T06:27:05.034Z,28.02
2018-10-09T06:29:37.107Z,26.30
2018-10-09T06:32:09.174Z,25.90
2018-10-09T06:34:41.267Z,26.40
2018-10-09T06:37:13.376Z,26.57
2018-10-09T06:39:45.527Z,26.40
2018-10-09T06:42:18.675Z,25.53
2018-10-09T06:44:50.756Z,26.43
2018-10-09T06:47:22.869Z,26.43
2018-10-09T06:49:54.917Z,24.50
2018-10-09T06:52:28.027Z,27.30
2018-10-09T06:55:00.142Z,25.33
2018-10-09T06:57:32.247Z,25.40
2018-10-09T07:00:04.528Z,24.13
2018-10-09T07:02:37.066Z,22.93
2018-10-09T07:05:09.115Z,24.57
2018-10-09T07:07:42.244Z,22.03
2018-10-09T07:10:14.339Z,24.87
2018-10-09T07:12:46.545Z,25.77
2018-10-09T07:15:18.627Z,22.60
2018-10-09T07:17:51.748Z,21.30
2018-10-09T07:20:23.857Z,23.07
2018-10-09T07:22:55.922Z,25.07
2018-10-09T07:25:28.033Z,21.30
2018-10-09T07:28:00.243Z,22.27
2018-10-09T07:30:33.382Z,22.07
2018-10-09T07:33:05.779Z,20.20
2018-10-09T07:35:38.428Z,20.87
2018-10-09T07:38:10.510Z,21.07
2018-10-09T07:40:42.617Z,20.03
2018-10-09T07:43:15.683Z,19.90
2018-10-09T07:45:47.786Z,20.10
2018-10-09T07:48:20.977Z,21.63
2018-10-09T07:50:53.018Z,22.87
2018-10-09T07:53:25.074Z,22.77
2018-10-09T07:55:57.188Z,23.83
2018-10-09T07:58:29.259Z,23.57
2018-10-09T08:01:01.356Z,24.37
2018-10-09T08:03:39.435Z,23.57
2018-10-09T08:06:11.460Z,21.60
2018-10-09T08:08:43.591Z,21.40
2018-10-09T08:11:15.663Z,22.90
2018-10-09T08:13:47.868Z,22.23
2018-10-09T08:16:19.968Z,23.27
2018-10-09T08:18:51.959Z,23.53
2018-10-09T08:21:24.056Z,23.10
2018-10-09T08:23:56.147Z,23.27
2018-10-09T08:26:28.213Z,23.20
2018-10-09T08:29:00.244Z,21.97
2018-10-09T08:31:32.291Z,23.97
2018-10-09T08:34:04.363Z,23.40
2018-10-09T08:36:36.440Z,25.27
2018-10-09T08:39:08.544Z,24.43
2018-10-09T08:41:40.676Z,25.27
2018-10-09T08:44:12.720Z,26.70
2018-10-09T08:46:44.833Z,26.70
2018-10-09T08:49:17.115Z,25.13
2018-10-09T08:51:50.088Z,24.30
2018-10-09T08:54:22.157Z,25.50
2018-10-09T08:56:54.325Z,23.57
2018-10-09T08:59:26.394Z,26.27
2018-10-09T09:01:58.554Z,26.40
2018-10-09T09:04:30.595Z,25.20
2018-10-09T09:07:02.658Z,27.50
2018-10-09T09:09:34.826Z,28.57
2018-10-09T09:12:06.840Z,27.33
2018-10-09T09:14:38.893Z,29.07
2018-10-09T09:17:11.001Z,28.27
2018-10-09T09:19:43.088Z,29.80
2018-10-09T09:22:15.149Z,27.90
2018-10-09T09:24:47.162Z,28.80
2018-10-09T09:27:19.390Z,27.13
2018-10-09T09:29:51.321Z,27.67
2018-10-09T09:32:23.479Z,28.67
2018-10-09T09:34:55.553Z,30.50
2018-10-09T09:37:27.604Z,28.73
2018-10-09T09:39:59.692Z,28.97
2018-10-09T09:42:31.752Z,29.90
2018-10-09T09:45:04.183Z,29.23
2018-10-09T09:47:36.291Z,25.33
2018-10-09T09:50:08.373Z,28.70
2018-10-09T09:52:40.427Z,27.30
2018-10-09T09:55:12.499Z,28.20
2018-10-09T09:57:44.559Z,28.30
2018-10-09T10:00:22.419Z,30.87
2018-10-09T10:02:54.467Z,28.53
2018-10-09T10:05:26.548Z,29.50
2018-10-09T10:07:58.640Z,28.73
2018-10-09T10:10:37.394Z,27.27
2018-10-09T10:13:09.485Z,27.87
2018-10-09T10:15:41.564Z,29.57
2018-10-09T10:18:13.663Z,29.73
2018-10-09T10:20:45.683Z,29.23
2018-10-09T10:23:17.847Z,28.87
2018-10-09T10:25:49.912Z,27.70
2018-10-09T10:28:22.016Z,28.20
2018-10-09T10:30:54.063Z,29.37
2018-10-09T10:33:26.127Z,28.40
2018-10-09T10:35:58.176Z,27.23
2018-10-09T10:38:30.245Z,28.67
2018-10-09T10:41:02.275Z,29.40
2018-10-09T10:43:34.298Z,33.43
2018-10-09T10:46:06.658Z,30.27
2018-10-09T10:48:52.177Z,29.20
2018-10-09T10:51:24.289Z,30.00
2018-10-09T10:53:56.722Z,28.50
2018-10-09T10:56:28.930Z,29.70
2018-10-09T10:59:01.012Z,27.40
2018-10-09T11:01:33.146Z,30.80
2018-10-09T11:04:05.184Z,29.43
2018-10-09T11:06:37.679Z,28.63
2018-10-09T11:09:12.024Z,26.20
2018-10-09T11:11:44.199Z,28.20
2018-10-09T11:14:16.276Z,29.20
2018-10-09T11:16:48.340Z,30.77
2018-10-09T11:19:20.390Z,29.60
2018-10-09T11:21:52.420Z,31.10
2018-10-09T11:24:24.506Z,30.30
2018-10-09T11:26:56.545Z,27.43
2018-10-09T11:29:28.628Z,27.87
2018-10-09T11:32:00.725Z,25.53
2018-10-09T11:34:33.088Z,28.47
2018-10-09T11:37:05.411Z,26.47
2018-10-09T11:39:37.465Z,27.90
2018-10-09T11:42:09.572Z,26.90
2018-10-09T11:44:41.660Z,26.23
2018-10-09T11:47:13.792Z,29.60
2018-10-09T11:49:45.800Z,27.83
2018-10-09T11:52:17.955Z,28.63
2018-10-09T11:54:50.023Z,28.53
2018-10-09T11:57:22.064Z,27.30
2018-10-09T11:59:54.301Z,25.70
2018-10-09T12:02:26.365Z,26.70
2018-10-09T12:04:58.433Z,25.50
2018-10-09T12:07:30.496Z,26.80
2018-10-09T12:10:02.588Z,26.50
2018-10-09T12:12:34.640Z,24.90
2018-10-09T12:15:06.751Z,26.20
2018-10-09T12:17:38.829Z,25.00
2018-10-09T12:20:10.924Z,25.80
2018-10-09T12:22:42.980Z,25.70
2018-10-09T12:25:15.148Z,25.80
2018-10-09T12:27:47.340Z,24.60
2018-10-09T12:30:19.451Z,27.20
2018-10-09T12:32:51.579Z,24.93
2018-10-09T12:35:23.595Z,23.77
2018-10-09T12:37:55.640Z,24.97
2018-10-09T12:40:27.679Z,24.57
2018-10-09T12:42:59.697Z,23.50
2018-10-09T12:45:31.740Z,25.73
2018-10-09T12:48:03.816Z,25.07
2018-10-09T12:50:35.868Z,23.90
2018-10-09T12:53:08.006Z,23.30
2018-10-09T12:55:40.038Z,22.43
2018-10-09T12:58:12.153Z,23.37
2018-10-09T13:00:44.221Z,23.27
2018-10-09T13:03:16.272Z,21.63
2018-10-09T13:05:48.372Z,22.60
2018-10-09T13:08:20.405Z,22.47
2018-10-09T13:10:52.460Z,21.23
2018-10-09T13:13:24.532Z,23.43
2018-10-09T13:15:56.599Z,21.60
2018-10-09T13:18:28.729Z,21.73
2018-10-09T13:21:00.818Z,22.10
2018-10-09T13:23:32.840Z,22.30
2018-10-09T13:26:04.982Z,22.00
2018-10-09T13:28:37.042Z,21.30
2018-10-09T13:31:09.106Z,21.60
2018-10-09T13:33:41.122Z,19.27
2018-10-09T13:36:13.161Z,21.37
2018-10-09T13:38:45.319Z,20.07
2018-10-09T13:41:17.340Z,20.40
2018-10-09T13:43:49.373Z,21.67
2018-10-09T13:46:21.405Z,19.60
2018-10-09T13:48:53.480Z,20.50
2018-10-09T13:51:25.548Z,18.47
2018-10-09T13:53:57.696Z,18.43
2018-10-09T13:56:29.892Z,17.30
2018-10-09T13:59:01.946Z,18.77
2018-10-09T14:01:34.027Z,18.97
2018-10-09T14:04:06.208Z,18.17
2018-10-09T14:06:38.253Z,19.33
2018-10-09T14:09:11.098Z,19.10
2018-10-09T14:11:43.127Z,18.87
2018-10-09T14:14:15.144Z,16.87
2018-10-09T14:16:47.217Z,17.60
2018-10-09T14:19:19.350Z,16.00
2018-10-09T14:21:51.421Z,16.60
2018-10-09T14:24:23.456Z,16.67
2018-10-09T14:26:55.497Z,16.40
2018-10-09T14:29:27.543Z,16.47
2018-10-09T14:31:59.624Z,15.57
2018-10-09T14:34:31.766Z,17.10
2018-10-09T14:37:04.784Z,17.83
2018-10-09T14:39:36.908Z,16.03
2018-10-09T14:42:09.005Z,14.37
2018-10-09T14:44:41.124Z,14.97
2018-10-09T14:47:13.488Z,15.40
2018-10-09T14:49:45.551Z,15.47
2018-10-09T14:52:17.645Z,15.83
2018-10-09T14:54:49.668Z,16.20
2018-10-09T14:57:21.787Z,16.00
2018-10-09T14:59:53.869Z,15.40
2018-10-09T15:02:25.972Z,15.00
2018-10-09T15:04:57.988Z,15.33
2018-10-09T15:07:30.013Z,14.57
2018-10-09T15:10:02.123Z,15.57
2018-10-09T15:12:34.181Z,14.80
2018-10-09T15:15:06.255Z,14.77
2018-10-09T15:17:38.412Z,14.70
2018-10-09T15:20:11.497Z,15.43
2018-10-09T15:22:43.571Z,14.47
2018-10-09T15:25:15.635Z,13.90
2018-10-09T15:27:47.643Z,13.47
2018-10-09T15:30:19.762Z,14.93
2018-10-09T15:32:52.023Z,16.60
2018-10-09T15:35:24.111Z,14.67
2018-10-09T15:37:56.179Z,13.67
2018-10-09T15:40:28.196Z,14.93
2018-10-09T15:43:00.282Z,14.00
2018-10-09T15:45:32.411Z,13.93
2018-10-09T15:48:04.488Z,13.30
2018-10-09T15:50:36.523Z,15.20
2018-10-09T15:53:08.581Z,14.63
2018-10-09T15:55:40.633Z,14.77
2018-10-09T15:58:12.654Z,15.30
2018-10-09T16:00:44.688Z,13.63
2018-10-09T16:03:16.683Z,14.40
2018-10-09T16:05:48.691Z,14.33
2018-10-09T16:08:20.716Z,14.60
2018-10-09T16:10:52.772Z,15.00
2018-10-09T16:13:24.877Z,15.70
2018-10-09T16:15:56.950Z,16.00
2018-10-09T16:18:28.988Z,15.63
2018-10-09T16:21:01.032Z,16.70
2018-10-09T16:23:33.090Z,15.40
2018-10-09T16:26:05.326Z,15.50
2018-10-09T16:28:37.506Z,15.70
2018-10-09T16:31:09.535Z,16.77
2018-10-09T16:33:41.596Z,17.80
2018-10-09T16:36:13.650Z,16.73
2018-10-09T16:38:45.674Z,16.90
2018-10-09T16:41:17.744Z,16.60
2018-10-09T16:43:49.813Z,17.63
2018-10-09T16:46:21.851Z,18.70
2018-10-09T16:48:53.897Z,18.00
2018-10-09T16:51:25.975Z,18.20
2018-10-09T16:53:58.020Z,18.47
2018-10-09T16:56:30.035Z,20.50
2018-10-09T16:59:02.090Z,18.53
2018-10-09T17:01:34.159Z,21.90
2018-10-09T17:04:06.184Z,20.40
2018-10-09T17:06:38.407Z,19.50
2018-10-09T17:09:11.104Z,20.23
2018-10-09T17:11:43.103Z,19.50
2018-10-09T17:14:15.099Z,20.37
2018-10-09T17:16:47.124Z,19.67
2018-10-09T17:19:19.145Z,19.80
2018-10-09T17:21:51.147Z,20.97
2018-10-09T17:24:23.159Z,20.10
2018-10-09T17:26:55.288Z,19.80
2018-10-09T17:29:27.248Z,19.80
2018-10-09T17:31:59.292Z,19.37
2018-10-09T17:34:31.404Z,20.13
2018-10-09T17:37:03.417Z,20.80
2018-10-09T17:39:35.464Z,20.00
2018-10-09T17:42:07.591Z,22.80
2018-10-09T17:44:39.651Z,19.50
2018-10-09T17:47:11.842Z,21.80
2018-10-09T17:49:43.925Z,20.87
2018-10-09T17:52:16.000Z,22.87
2018-10-09T17:54:48.057Z,20.60
2018-10-09T17:57:20.082Z,23.60
2018-10-09T17:59:52.107Z,22.27
2018-10-09T18:02:24.187Z,23.00
2018-10-09T18:04:56.232Z,20.00
2018-10-09T18:07:28.239Z,19.73
2018-10-09T18:10:00.260Z,23.03
2018-10-09T18:12:32.284Z,21.83
2018-10-09T18:15:05.646Z,22.37
2018-10-09T18:17:37.668Z,21.10
2018-10-09T18:20:09.911Z,20.87
2018-10-09T18:22:42.200Z,22.47
2018-10-09T18:25:14.363Z,22.30
2018-10-09T18:27:46.384Z,22.20
2018-10-09T18:30:18.494Z,21.50
2018-10-09T18:32:50.746Z,22.17
2018-10-09T18:35:22.588Z,19.80
2018-10-09T18:37:54.646Z,21.47
2018-10-09T18:40:26.737Z,20.40
2018-10-09T18:42:58.720Z,21.10
2018-10-09T18:45:30.716Z,22.17
2018-10-09T18:48:02.759Z,21.47
2018-10-09T18:50:34.892Z,21.30
2018-10-09T18:53:06.952Z,21.90
2018-10-09T18:55:39.122Z,22.50
2018-10-09T18:58:12.770Z,21.07
2018-10-09T19:00:45.402Z,22.50
2018-10-09T19:03:17.503Z,21.20
2018-10-09T19:05:49.609Z,20.37
2018-10-09T19:08:21.628Z,22.33
2018-10-09T19:10:53.747Z,23.60
2018-10-09T19:13:25.826Z,21.30
2018-10-09T19:15:57.959Z,22.20
2018-10-09T19:18:30.071Z,24.43
2018-10-09T19:21:02.262Z,23.13
2018-10-09T19:23:34.375Z,23.70
2018-10-09T19:26:06.613Z,22.70
2018-10-09T19:28:38.776Z,22.97
2018-10-09T19:31:10.958Z,25.23
2018-10-09T19:33:43.098Z,24.93
2018-10-09T19:36:15.333Z,23.90
2018-10-09T19:38:47.581Z,23.57
2018-10-09T19:41:19.920Z,22.73
2018-10-09T19:43:52.191Z,23.60
2018-10-09T19:46:24.353Z,24.57
2018-10-09T19:48:56.587Z,26.43
2018-10-09T19:51:29.216Z,24.53
2018-10-09T19:54:01.315Z,25.57
2018-10-09T19:56:33.584Z,25.70
2018-10-09T19:59:05.958Z,26.00
2018-10-09T20:01:39.227Z,25.47
2018-10-09T20:04:11.378Z,26.53
2018-10-09T20:06:43.748Z,23.90
2018-10-09T20:09:16.031Z,23.83
2018-10-09T20:11:48.293Z,23.77
2018-10-09T20:14:21.446Z,24.53
2018-10-09T20:16:53.726Z,26.50
2018-10-09T20:19:25.967Z,24.80
2018-10-09T20:21:58.351Z,24.67
2018-10-09T20:24:30.624Z,25.30
2018-10-09T20:27:02.952Z,23.93
2018-10-09T20:29:35.280Z,24.10
2018-10-09T20:32:07.567Z,24.50
2018-10-09T20:34:40.132Z,24.40
2018-10-09T20:37:12.334Z,22.33
2018-10-09T20:39:44.668Z,27.30
2018-10-09T20:42:16.881Z,23.03
2018-10-09T20:44:49.135Z,22.30
2018-10-09T20:47:26.995Z,25.73
2018-10-09T20:49:59.296Z,23.07
2018-10-09T20:52:31.720Z,23.63
2018-10-09T20:55:04.100Z,24.40
2018-10-09T20:57:36.630Z,24.80
2018-10-09T21:00:10.068Z,24.23
2018-10-09T21:02:42.837Z,24.10
2018-10-09T21:05:15.216Z,24.40
2018-10-09T21:07:47.532Z,22.20
2018-10-09T21:10:19.852Z,23.27
2018-10-09T21:12:52.027Z,24.60
2018-10-09T21:15:24.363Z,23.30
2018-10-09T21:17:56.657Z,23.17
2018-10-09T21:20:28.884Z,22.93
2018-10-09T21:23:01.188Z,24.10
2018-10-09T21:25:33.527Z,24.70
2018-10-09T21:28:06.013Z,25.10
2018-10-09T21:30:38.333Z,25.07
2018-10-09T21:33:10.588Z,24.50
2018-10-09T21:35:42.756Z,26.10
2018-10-09T21:38:15.126Z,24.57
2018-10-09T21:40:47.782Z,26.47
2018-10-09T21:43:20.070Z,27.27
2018-10-09T21:45:52.280Z,24.33
2018-10-09T21:48:24.616Z,26.67
2018-10-09T21:50:56.919Z,24.83
2018-10-09T21:53:29.119Z,27.50
2018-10-09T21:56:01.310Z,25.30
2018-10-09T21:58:33.592Z,28.47
2018-10-09T22:01:10.791Z,24.55
2018-10-09T22:03:43.025Z,28.13
2018-10-09T22:06:15.392Z,27.10
2018-10-09T22:08:47.568Z,24.80
2018-10-09T22:11:19.845Z,27.48
2018-10-09T22:13:52.145Z,26.53
2018-10-09T22:16:24.488Z,26.83
2018-10-09T22:18:56.697Z,26.50
2018-10-09T22:21:29.017Z,26.87
2018-10-09T22:24:01.255Z,25.25
2018-10-09T22:26:33.542Z,26.87
2018-10-09T22:29:05.780Z,25.52
2018-10-09T22:31:38.096Z,27.30
2018-10-09T22:34:10.297Z,27.40
2018-10-09T22:36:42.605Z,27.45
2018-10-09T22:39:14.759Z,26.37
2018-10-09T22:41:47.016Z,25.82
2018-10-09T22:44:19.268Z,26.87
2018-10-09T22:46:51.552Z,27.50
2018-10-09T22:49:23.757Z,27.07
2018-10-09T22:51:56.031Z,26.00
2018-10-09T22:54:28.217Z,26.82
2018-10-09T22:57:00.542Z,26.20
2018-10-09T22:59:32.844Z,26.20
2018-10-09T23:02:05.043Z,24.70
2018-10-09T23:04:37.390Z,25.77
2018-10-09T23:07:09.652Z,27.20
2018-10-09T23:09:41.820Z,24.75
2018-10-09T23:12:14.119Z,25.45
2018-10-09T23:14:46.418Z,26.75
2018-10-09T23:17:18.712Z,27.25
2018-10-09T23:19:50.934Z,27.35
2018-10-09T23:22:23.582Z,27.15
2018-10-09T23:24:55.787Z,27.25
2018-10-09T23:27:28.233Z,26.62
2018-10-09T23:30:00.401Z,26.15
2018-10-09T23:32:32.668Z,27.20
2018-10-09T23:35:05.001Z,27.10
2018-10-09T23:37:37.195Z,24.35
2018-10-09T23:40:09.451Z,25.12
2018-10-09T23:42:41.589Z,25.92
2018-10-09T23:45:13.871Z,27.62
2018-10-09T23:47:45.977Z,26.60
2018-10-09T23:50:18.131Z,27.30
2018-10-09T23:52:50.315Z,26.65
2018-10-09T23:55:22.503Z,27.22
2018-10-09T23:57:54.605Z,28.45
